sensor_id;sensor_type;location;lat;lon;timestamp;P1;durP1;ratioP1;P2;durP2;ratioP2
787;SDS011;16074;42.708;23.312;2022-10-16T00:01:08;9.15;;;8.25;;
787;SDS011;16074;42.708;23.312;2022-10-16T00:03:38;8.73;;;7.88;;
787;SDS011;16074;42.708;23.312;2022-10-16T00:06:07;8.35;;;7.55;;
787;SDS011;16074;42.708;23.312;2022-10-16T00:08:37;8.10;;;7.30;;
787;SDS011;16074;42.708;23.312;2022-10-16T00:11:08;7.63;;;6.90;;
787;SDS011;16074;42.708;23.312;2022-10-16T00:13:39;8.35;;;7.47;;
787;SDS011;16074;42.708;23.312;2022-10-16T00:16:09;8.43;;;7.63;;
787;SDS011;16074;42.708;23.312;2022-10-16T00:18:39;8.15;;;7.25;;
787;SDS011;16074;42.708;23.312;2022-10-16T00:21:08;8.38;;;7.55;;
787;SDS011;16074;42.708;23.312;2022-10-16T00:23:57;11.90;;;9.73;;
787;SDS011;16074;42.708;23.312;2022-10-16T00:26:27;12.10;;;9.95;;
787;SDS011;16074;42.708;23.312;2022-10-16T00:28:59;8.75;;;7.95;;
787;SDS011;16074;42.708;23.312;2022-10-16T00:31:27;11.18;;;9.80;;
787;SDS011;16074;42.708;23.312;2022-10-16T00:33:56;9.60;;;8.05;;
787;SDS011;16074;42.708;23.312;2022-10-16T00:36:25;9.68;;;8.70;;
787;SDS011;16074;42.708;23.312;2022-10-16T00:38:54;9.43;;;8.57;;
787;SDS011;16074;42.708;23.312;2022-10-16T00:41:24;10.50;;;8.77;;
787;SDS011;16074;42.708;23.312;2022-10-16T00:43:54;10.43;;;8.85;;
787;SDS011;16074;42.708;23.312;2022-10-16T00:46:25;11.73;;;9.52;;
787;SDS011;16074;42.708;23.312;2022-10-16T00:48:57;10.88;;;9.27;;
787;SDS011;16074;42.708;23.312;2022-10-16T00:51:30;11.45;;;10.13;;
787;SDS011;16074;42.708;23.312;2022-10-16T00:54:01;13.43;;;10.38;;
787;SDS011;16074;42.708;23.312;2022-10-16T00:56:32;12.52;;;10.88;;
787;SDS011;16074;42.708;23.312;2022-10-16T00:59:01;13.23;;;11.05;;
787;SDS011;16074;42.708;23.312;2022-10-16T01:01:35;11.98;;;10.38;;
787;SDS011;16074;42.708;23.312;2022-10-16T01:04:03;12.75;;;9.88;;
787;SDS011;16074;42.708;23.312;2022-10-16T01:06:32;11.00;;;9.90;;
787;SDS011;16074;42.708;23.312;2022-10-16T01:09:09;12.35;;;10.18;;
787;SDS011;16074;42.708;23.312;2022-10-16T01:11:44;14.52;;;10.15;;
787;SDS011;16074;42.708;23.312;2022-10-16T01:14:21;12.40;;;11.02;;
787;SDS011;16074;42.708;23.312;2022-10-16T01:16:57;11.13;;;10.00;;
787;SDS011;16074;42.708;23.312;2022-10-16T01:19:35;13.25;;;10.27;;
787;SDS011;16074;42.708;23.312;2022-10-16T01:22:11;13.20;;;10.63;;
787;SDS011;16074;42.708;23.312;2022-10-16T01:24:43;12.20;;;10.60;;
787;SDS011;16074;42.708;23.312;2022-10-16T01:27:15;15.35;;;10.57;;
787;SDS011;16074;42.708;23.312;2022-10-16T01:29:52;13.25;;;10.70;;
787;SDS011;16074;42.708;23.312;2022-10-16T01:32:26;12.13;;;10.00;;
787;SDS011;16074;42.708;23.312;2022-10-16T01:35:00;10.55;;;9.25;;
787;SDS011;16074;42.708;23.312;2022-10-16T01:37:33;9.30;;;8.10;;
787;SDS011;16074;42.708;23.312;2022-10-16T01:40:05;10.25;;;9.25;;
787;SDS011;16074;42.708;23.312;2022-10-16T01:42:39;11.18;;;9.20;;
787;SDS011;16074;42.708;23.312;2022-10-16T01:45:11;9.77;;;8.75;;
787;SDS011;16074;42.708;23.312;2022-10-16T01:47:44;10.27;;;9.25;;
787;SDS011;16074;42.708;23.312;2022-10-16T01:50:14;12.13;;;9.30;;
787;SDS011;16074;42.708;23.312;2022-10-16T01:52:45;13.60;;;11.10;;
787;SDS011;16074;42.708;23.312;2022-10-16T01:55:17;11.85;;;9.48;;
787;SDS011;16074;42.708;23.312;2022-10-16T01:57:51;16.20;;;9.00;;
787;SDS011;16074;42.708;23.312;2022-10-16T02:00:22;10.75;;;9.65;;
787;SDS011;16074;42.708;23.312;2022-10-16T02:02:52;9.52;;;8.48;;
787;SDS011;16074;42.708;23.312;2022-10-16T02:05:23;12.05;;;9.68;;
787;SDS011;16074;42.708;23.312;2022-10-16T02:07:54;11.98;;;9.27;;
787;SDS011;16074;42.708;23.312;2022-10-16T02:10:27;9.43;;;8.50;;
787;SDS011;16074;42.708;23.312;2022-10-16T02:13:00;10.98;;;8.55;;
787;SDS011;16074;42.708;23.312;2022-10-16T02:15:31;10.15;;;8.05;;
787;SDS011;16074;42.708;23.312;2022-10-16T02:17:59;9.80;;;8.32;;
787;SDS011;16074;42.708;23.312;2022-10-16T02:20:28;9.60;;;8.63;;
787;SDS011;16074;42.708;23.312;2022-10-16T02:23:00;11.82;;;7.88;;
787;SDS011;16074;42.708;23.312;2022-10-16T02:25:31;9.63;;;8.57;;
787;SDS011;16074;42.708;23.312;2022-10-16T02:28:06;8.30;;;7.50;;
787;SDS011;16074;42.708;23.312;2022-10-16T02:30:39;8.98;;;7.95;;
787;SDS011;16074;42.708;23.312;2022-10-16T02:33:13;8.30;;;7.25;;
787;SDS011;16074;42.708;23.312;2022-10-16T02:35:44;14.50;;;7.25;;
787;SDS011;16074;42.708;23.312;2022-10-16T02:38:15;8.30;;;7.53;;
787;SDS011;16074;42.708;23.312;2022-10-16T02:40:44;6.28;;;5.70;;
787;SDS011;16074;42.708;23.312;2022-10-16T02:43:15;7.70;;;6.90;;
787;SDS011;16074;42.708;23.312;2022-10-16T02:45:44;6.85;;;6.30;;
787;SDS011;16074;42.708;23.312;2022-10-16T02:48:12;7.45;;;6.53;;
787;SDS011;16074;42.708;23.312;2022-10-16T02:50:41;7.38;;;6.63;;
787;SDS011;16074;42.708;23.312;2022-10-16T02:53:09;7.55;;;6.75;;
787;SDS011;16074;42.708;23.312;2022-10-16T02:55:38;7.80;;;6.57;;
787;SDS011;16074;42.708;23.312;2022-10-16T02:58:06;8.13;;;6.45;;
787;SDS011;16074;42.708;23.312;2022-10-16T03:00:36;8.05;;;7.15;;
787;SDS011;16074;42.708;23.312;2022-10-16T03:03:04;8.45;;;7.60;;
787;SDS011;16074;42.708;23.312;2022-10-16T03:05:32;8.55;;;6.97;;
787;SDS011;16074;42.708;23.312;2022-10-16T03:08:00;9.13;;;7.43;;
787;SDS011;16074;42.708;23.312;2022-10-16T03:10:29;7.75;;;6.95;;
787;SDS011;16074;42.708;23.312;2022-10-16T03:12:57;8.35;;;6.78;;
787;SDS011;16074;42.708;23.312;2022-10-16T03:15:25;9.60;;;7.50;;
787;SDS011;16074;42.708;23.312;2022-10-16T03:17:56;7.45;;;6.78;;
787;SDS011;16074;42.708;23.312;2022-10-16T03:20:25;8.00;;;7.20;;
787;SDS011;16074;42.708;23.312;2022-10-16T03:22:54;8.45;;;7.60;;
787;SDS011;16074;42.708;23.312;2022-10-16T03:25:22;9.02;;;7.97;;
787;SDS011;16074;42.708;23.312;2022-10-16T03:27:50;8.35;;;7.55;;
787;SDS011;16074;42.708;23.312;2022-10-16T03:30:18;8.90;;;7.45;;
787;SDS011;16074;42.708;23.312;2022-10-16T03:32:47;9.57;;;7.85;;
787;SDS011;16074;42.708;23.312;2022-10-16T03:35:21;8.63;;;7.32;;
787;SDS011;16074;42.708;23.312;2022-10-16T03:37:50;9.18;;;7.78;;
787;SDS011;16074;42.708;23.312;2022-10-16T03:40:19;8.43;;;7.03;;
787;SDS011;16074;42.708;23.312;2022-10-16T03:42:47;7.88;;;6.88;;
787;SDS011;16074;42.708;23.312;2022-10-16T03:45:15;7.57;;;6.82;;
787;SDS011;16074;42.708;23.312;2022-10-16T03:47:43;12.00;;;8.25;;
787;SDS011;16074;42.708;23.312;2022-10-16T03:50:11;9.00;;;8.07;;
787;SDS011;16074;42.708;23.312;2022-10-16T03:52:41;11.77;;;8.40;;
787;SDS011;16074;42.708;23.312;2022-10-16T03:55:09;8.93;;;7.88;;
787;SDS011;16074;42.708;23.312;2022-10-16T03:57:37;10.18;;;8.15;;
787;SDS011;16074;42.708;23.312;2022-10-16T04:00:06;8.18;;;7.38;;
787;SDS011;16074;42.708;23.312;2022-10-16T04:02:37;9.95;;;8.25;;
787;SDS011;16074;42.708;23.312;2022-10-16T04:05:06;8.82;;;7.93;;
787;SDS011;16074;42.708;23.312;2022-10-16T04:07:35;10.23;;;7.95;;
787;SDS011;16074;42.708;23.312;2022-10-16T04:10:05;9.27;;;7.90;;
787;SDS011;16074;42.708;23.312;2022-10-16T04:12:33;10.20;;;8.57;;
787;SDS011;16074;42.708;23.312;2022-10-16T04:15:02;12.23;;;8.35;;
787;SDS011;16074;42.708;23.312;2022-10-16T04:17:30;8.15;;;7.40;;
787;SDS011;16074;42.708;23.312;2022-10-16T04:19:58;9.52;;;7.53;;
787;SDS011;16074;42.708;23.312;2022-10-16T04:22:26;7.40;;;6.80;;
787;SDS011;16074;42.708;23.312;2022-10-16T04:24:55;9.52;;;8.48;;
787;SDS011;16074;42.708;23.312;2022-10-16T04:27:24;9.98;;;8.98;;
787;SDS011;16074;42.708;23.312;2022-10-16T04:29:53;9.85;;;7.30;;
787;SDS011;16074;42.708;23.312;2022-10-16T04:32:21;9.25;;;8.38;;
787;SDS011;16074;42.708;23.312;2022-10-16T04:34:49;9.60;;;7.60;;
787;SDS011;16074;42.708;23.312;2022-10-16T04:37:17;8.95;;;8.15;;
787;SDS011;16074;42.708;23.312;2022-10-16T04:39:46;9.65;;;8.00;;
787;SDS011;16074;42.708;23.312;2022-10-16T04:42:14;8.05;;;7.25;;
787;SDS011;16074;42.708;23.312;2022-10-16T04:44:43;9.48;;;8.57;;
787;SDS011;16074;42.708;23.312;2022-10-16T04:47:12;11.18;;;7.85;;
787;SDS011;16074;42.708;23.312;2022-10-16T04:49:40;8.90;;;8.07;;
787;SDS011;16074;42.708;23.312;2022-10-16T04:52:08;10.38;;;7.93;;
787;SDS011;16074;42.708;23.312;2022-10-16T04:54:37;12.52;;;9.40;;
787;SDS011;16074;42.708;23.312;2022-10-16T04:57:05;8.23;;;7.43;;
787;SDS011;16074;42.708;23.312;2022-10-16T04:59:33;8.88;;;8.07;;
787;SDS011;16074;42.708;23.312;2022-10-16T05:02:04;10.15;;;7.72;;
787;SDS011;16074;42.708;23.312;2022-10-16T05:04:32;8.07;;;7.28;;
787;SDS011;16074;42.708;23.312;2022-10-16T05:07:00;9.32;;;8.13;;
787;SDS011;16074;42.708;23.312;2022-10-16T05:09:28;9.55;;;8.68;;
787;SDS011;16074;42.708;23.312;2022-10-16T05:11:56;9.90;;;7.97;;
787;SDS011;16074;42.708;23.312;2022-10-16T05:14:24;11.68;;;8.13;;
787;SDS011;16074;42.708;23.312;2022-10-16T05:16:53;9.23;;;8.15;;
787;SDS011;16074;42.708;23.312;2022-10-16T05:19:22;11.25;;;9.18;;
787;SDS011;16074;42.708;23.312;2022-10-16T05:21:53;14.75;;;8.65;;
787;SDS011;16074;42.708;23.312;2022-10-16T05:24:22;8.32;;;7.53;;
787;SDS011;16074;42.708;23.312;2022-10-16T05:26:50;9.60;;;8.07;;
787;SDS011;16074;42.708;23.312;2022-10-16T05:29:19;9.82;;;8.50;;
787;SDS011;16074;42.708;23.312;2022-10-16T05:31:49;10.60;;;8.57;;
787;SDS011;16074;42.708;23.312;2022-10-16T05:34:19;9.65;;;8.10;;
787;SDS011;16074;42.708;23.312;2022-10-16T05:36:49;12.45;;;9.70;;
787;SDS011;16074;42.708;23.312;2022-10-16T05:39:17;9.77;;;8.48;;
787;SDS011;16074;42.708;23.312;2022-10-16T05:41:45;10.40;;;8.35;;
787;SDS011;16074;42.708;23.312;2022-10-16T05:44:13;10.45;;;9.13;;
787;SDS011;16074;42.708;23.312;2022-10-16T05:46:42;9.32;;;8.40;;
787;SDS011;16074;42.708;23.312;2022-10-16T05:49:10;11.07;;;8.30;;
787;SDS011;16074;42.708;23.312;2022-10-16T05:51:38;9.82;;;8.45;;
787;SDS011;16074;42.708;23.312;2022-10-16T05:54:09;10.15;;;9.15;;
787;SDS011;16074;42.708;23.312;2022-10-16T05:56:37;20.08;;;9.00;;
787;SDS011;16074;42.708;23.312;2022-10-16T05:59:05;11.18;;;9.45;;
787;SDS011;16074;42.708;23.312;2022-10-16T06:01:34;11.65;;;10.45;;
787;SDS011;16074;42.708;23.312;2022-10-16T06:04:02;10.65;;;9.60;;
787;SDS011;16074;42.708;23.312;2022-10-16T06:06:30;12.63;;;11.20;;
787;SDS011;16074;42.708;23.312;2022-10-16T06:08:59;11.15;;;10.00;;
787;SDS011;16074;42.708;23.312;2022-10-16T06:11:28;12.00;;;10.30;;
787;SDS011;16074;42.708;23.312;2022-10-16T06:13:59;10.27;;;9.27;;
787;SDS011;16074;42.708;23.312;2022-10-16T06:16:29;10.90;;;9.80;;
787;SDS011;16074;42.708;23.312;2022-10-16T06:18:57;13.15;;;10.43;;
787;SDS011;16074;42.708;23.312;2022-10-16T06:21:27;10.10;;;8.55;;
787;SDS011;16074;42.708;23.312;2022-10-16T06:23:56;11.55;;;10.35;;
787;SDS011;16074;42.708;23.312;2022-10-16T06:26:26;10.60;;;9.60;;
787;SDS011;16074;42.708;23.312;2022-10-16T06:28:57;14.02;;;11.60;;
787;SDS011;16074;42.708;23.312;2022-10-16T06:31:27;10.18;;;9.18;;
787;SDS011;16074;42.708;23.312;2022-10-16T06:33:57;11.48;;;10.27;;
787;SDS011;16074;42.708;23.312;2022-10-16T06:36:26;9.60;;;8.70;;
787;SDS011;16074;42.708;23.312;2022-10-16T06:38:54;10.45;;;9.30;;
787;SDS011;16074;42.708;23.312;2022-10-16T06:41:23;11.60;;;10.60;;
787;SDS011;16074;42.708;23.312;2022-10-16T06:43:51;10.25;;;9.15;;
787;SDS011;16074;42.708;23.312;2022-10-16T06:46:21;12.05;;;10.88;;
787;SDS011;16074;42.708;23.312;2022-10-16T06:48:52;10.48;;;9.38;;
787;SDS011;16074;42.708;23.312;2022-10-16T06:51:21;11.52;;;10.45;;
787;SDS011;16074;42.708;23.312;2022-10-16T06:53:50;10.35;;;9.43;;
787;SDS011;16074;42.708;23.312;2022-10-16T06:56:30;9.97;;;8.73;;
787;SDS011;16074;42.708;23.312;2022-10-16T06:58:59;10.97;;;8.60;;
787;SDS011;16074;42.708;23.312;2022-10-16T07:01:29;9.37;;;8.43;;
787;SDS011;16074;42.708;23.312;2022-10-16T07:03:57;11.03;;;8.50;;
787;SDS011;16074;42.708;23.312;2022-10-16T07:06:26;11.27;;;9.13;;
787;SDS011;16074;42.708;23.312;2022-10-16T07:08:54;11.73;;;9.40;;
787;SDS011;16074;42.708;23.312;2022-10-16T07:11:23;11.17;;;10.07;;
787;SDS011;16074;42.708;23.312;2022-10-16T07:13:51;10.13;;;9.03;;
787;SDS011;16074;42.708;23.312;2022-10-16T07:16:22;11.03;;;9.97;;
787;SDS011;16074;42.708;23.312;2022-10-16T07:18:54;15.70;;;8.80;;
787;SDS011;16074;42.708;23.312;2022-10-16T07:21:26;9.73;;;8.80;;
787;SDS011;16074;42.708;23.312;2022-10-16T07:23:56;10.17;;;9.27;;
787;SDS011;16074;42.708;23.312;2022-10-16T07:26:26;11.23;;;9.23;;
787;SDS011;16074;42.708;23.312;2022-10-16T07:28:56;9.43;;;8.33;;
787;SDS011;16074;42.708;23.312;2022-10-16T07:31:25;11.63;;;10.53;;
787;SDS011;16074;42.708;23.312;2022-10-16T07:33:55;12.50;;;10.20;;
787;SDS011;16074;42.708;23.312;2022-10-16T07:36:26;12.17;;;10.97;;
787;SDS011;16074;42.708;23.312;2022-10-16T07:38:55;11.23;;;9.40;;
787;SDS011;16074;42.708;23.312;2022-10-16T07:41:26;14.80;;;11.30;;
787;SDS011;16074;42.708;23.312;2022-10-16T07:43:55;17.87;;;12.33;;
787;SDS011;16074;42.708;23.312;2022-10-16T07:46:26;14.20;;;12.87;;
787;SDS011;16074;42.708;23.312;2022-10-16T07:48:56;16.50;;;14.90;;
787;SDS011;16074;42.708;23.312;2022-10-16T07:51:25;19.57;;;17.80;;
787;SDS011;16074;42.708;23.312;2022-10-16T07:53:54;15.27;;;13.73;;
787;SDS011;16074;42.708;23.312;2022-10-16T07:56:22;15.90;;;14.33;;
787;SDS011;16074;42.708;23.312;2022-10-16T07:58:50;14.07;;;12.73;;
787;SDS011;16074;42.708;23.312;2022-10-16T08:01:19;11.53;;;10.53;;
787;SDS011;16074;42.708;23.312;2022-10-16T08:03:48;11.80;;;10.80;;
787;SDS011;16074;42.708;23.312;2022-10-16T08:06:19;11.40;;;10.20;;
787;SDS011;16074;42.708;23.312;2022-10-16T08:08:53;12.00;;;10.80;;
787;SDS011;16074;42.708;23.312;2022-10-16T08:11:22;12.53;;;11.27;;
787;SDS011;16074;42.708;23.312;2022-10-16T08:13:51;11.50;;;10.40;;
787;SDS011;16074;42.708;23.312;2022-10-16T08:16:19;11.30;;;10.20;;
787;SDS011;16074;42.708;23.312;2022-10-16T08:18:48;10.50;;;9.50;;
787;SDS011;16074;42.708;23.312;2022-10-16T08:21:19;10.43;;;9.53;;
787;SDS011;16074;42.708;23.312;2022-10-16T08:23:50;10.03;;;8.83;;
787;SDS011;16074;42.708;23.312;2022-10-16T08:26:23;10.73;;;9.63;;
787;SDS011;16074;42.708;23.312;2022-10-16T08:28:52;10.47;;;9.33;;
787;SDS011;16074;42.708;23.312;2022-10-16T08:31:21;10.53;;;8.43;;
787;SDS011;16074;42.708;23.312;2022-10-16T08:33:49;12.70;;;10.40;;
787;SDS011;16074;42.708;23.312;2022-10-16T08:36:20;9.83;;;8.93;;
787;SDS011;16074;42.708;23.312;2022-10-16T08:38:49;8.30;;;7.67;;
787;SDS011;16074;42.708;23.312;2022-10-16T08:41:22;9.23;;;8.30;;
787;SDS011;16074;42.708;23.312;2022-10-16T08:44:04;7.97;;;7.27;;
787;SDS011;16074;42.708;23.312;2022-10-16T08:46:53;7.87;;;7.30;;
787;SDS011;16074;42.708;23.312;2022-10-16T08:49:30;6.73;;;6.23;;
787;SDS011;16074;42.708;23.312;2022-10-16T08:52:00;7.60;;;7.00;;
787;SDS011;16074;42.708;23.312;2022-10-16T08:54:29;6.80;;;6.13;;
787;SDS011;16074;42.708;23.312;2022-10-16T08:57:07;7.00;;;6.40;;
787;SDS011;16074;42.708;23.312;2022-10-16T08:59:38;6.93;;;6.23;;
787;SDS011;16074;42.708;23.312;2022-10-16T09:02:13;7.93;;;7.20;;
787;SDS011;16074;42.708;23.312;2022-10-16T09:04:57;7.47;;;6.77;;
787;SDS011;16074;42.708;23.312;2022-10-16T09:07:47;7.07;;;6.47;;
787;SDS011;16074;42.708;23.312;2022-10-16T09:10:26;5.90;;;5.40;;
787;SDS011;16074;42.708;23.312;2022-10-16T09:13:09;5.47;;;4.93;;
787;SDS011;16074;42.708;23.312;2022-10-16T09:15:46;4.87;;;4.47;;
787;SDS011;16074;42.708;23.312;2022-10-16T09:18:22;5.30;;;4.83;;
787;SDS011;16074;42.708;23.312;2022-10-16T09:20:59;5.07;;;4.67;;
787;SDS011;16074;42.708;23.312;2022-10-16T09:23:37;4.50;;;4.20;;
787;SDS011;16074;42.708;23.312;2022-10-16T09:26:08;5.30;;;4.90;;
787;SDS011;16074;42.708;23.312;2022-10-16T09:28:39;6.00;;;4.93;;
787;SDS011;16074;42.708;23.312;2022-10-16T09:31:10;5.40;;;5.00;;
787;SDS011;16074;42.708;23.312;2022-10-16T09:33:43;6.53;;;5.23;;
787;SDS011;16074;42.708;23.312;2022-10-16T09:36:13;4.87;;;4.47;;
787;SDS011;16074;42.708;23.312;2022-10-16T09:38:43;4.83;;;4.50;;
787;SDS011;16074;42.708;23.312;2022-10-16T09:41:14;5.13;;;4.73;;
787;SDS011;16074;42.708;23.312;2022-10-16T09:43:52;5.10;;;4.77;;
787;SDS011;16074;42.708;23.312;2022-10-16T09:46:27;5.80;;;5.03;;
787;SDS011;16074;42.708;23.312;2022-10-16T09:48:57;4.60;;;4.30;;
787;SDS011;16074;42.708;23.312;2022-10-16T09:51:28;6.20;;;5.03;;
787;SDS011;16074;42.708;23.312;2022-10-16T09:53:59;3.90;;;3.60;;
787;SDS011;16074;42.708;23.312;2022-10-16T09:56:29;4.10;;;3.73;;
787;SDS011;16074;42.708;23.312;2022-10-16T09:59:00;5.50;;;4.20;;
787;SDS011;16074;42.708;23.312;2022-10-16T10:01:31;4.03;;;3.73;;
787;SDS011;16074;42.708;23.312;2022-10-16T10:04:04;4.33;;;4.10;;
787;SDS011;16074;42.708;23.312;2022-10-16T10:06:34;4.73;;;4.33;;
787;SDS011;16074;42.708;23.312;2022-10-16T10:09:13;4.43;;;4.10;;
787;SDS011;16074;42.708;23.312;2022-10-16T10:11:49;4.70;;;4.40;;
787;SDS011;16074;42.708;23.312;2022-10-16T10:14:20;4.37;;;4.07;;
787;SDS011;16074;42.708;23.312;2022-10-16T10:16:51;4.90;;;4.60;;
787;SDS011;16074;42.708;23.312;2022-10-16T10:19:21;5.27;;;4.77;;
787;SDS011;16074;42.708;23.312;2022-10-16T10:21:56;7.80;;;4.93;;
787;SDS011;16074;42.708;23.312;2022-10-16T10:24:25;5.03;;;4.63;;
787;SDS011;16074;42.708;23.312;2022-10-16T10:26:55;5.73;;;5.23;;
787;SDS011;16074;42.708;23.312;2022-10-16T10:29:43;5.33;;;4.97;;
787;SDS011;16074;42.708;23.312;2022-10-16T10:32:22;9.90;;;5.50;;
787;SDS011;16074;42.708;23.312;2022-10-16T10:35:13;4.10;;;3.80;;
787;SDS011;16074;42.708;23.312;2022-10-16T10:37:51;4.07;;;3.87;;
787;SDS011;16074;42.708;23.312;2022-10-16T10:40:38;5.33;;;4.80;;
787;SDS011;16074;42.708;23.312;2022-10-16T10:43:16;4.73;;;4.33;;
787;SDS011;16074;42.708;23.312;2022-10-16T10:45:54;7.50;;;5.60;;
787;SDS011;16074;42.708;23.312;2022-10-16T10:51:28;7.50;;;5.57;;
787;SDS011;16074;42.708;23.312;2022-10-16T10:54:11;5.47;;;5.00;;
787;SDS011;16074;42.708;23.312;2022-10-16T10:56:46;5.33;;;4.57;;
787;SDS011;16074;42.708;23.312;2022-10-16T10:59:28;4.83;;;4.53;;
787;SDS011;16074;42.708;23.312;2022-10-16T11:02:06;4.57;;;4.10;;
787;SDS011;16074;42.708;23.312;2022-10-16T11:04:49;4.53;;;4.23;;
787;SDS011;16074;42.708;23.312;2022-10-16T11:07:28;4.00;;;3.80;;
787;SDS011;16074;42.708;23.312;2022-10-16T11:10:02;5.20;;;4.70;;
787;SDS011;16074;42.708;23.312;2022-10-16T11:12:38;4.90;;;4.57;;
787;SDS011;16074;42.708;23.312;2022-10-16T11:15:11;5.83;;;5.33;;
787;SDS011;16074;42.708;23.312;2022-10-16T11:17:44;5.10;;;4.70;;
787;SDS011;16074;42.708;23.312;2022-10-16T11:20:18;4.80;;;4.50;;
787;SDS011;16074;42.708;23.312;2022-10-16T11:22:50;4.40;;;4.10;;
787;SDS011;16074;42.708;23.312;2022-10-16T11:25:22;5.73;;;5.23;;
787;SDS011;16074;42.708;23.312;2022-10-16T11:27:57;5.13;;;4.73;;
787;SDS011;16074;42.708;23.312;2022-10-16T11:30:34;6.37;;;5.77;;
787;SDS011;16074;42.708;23.312;2022-10-16T11:33:14;6.73;;;6.13;;
787;SDS011;16074;42.708;23.312;2022-10-16T11:35:53;5.87;;;5.37;;
787;SDS011;16074;42.708;23.312;2022-10-16T11:38:28;6.00;;;5.50;;
787;SDS011;16074;42.708;23.312;2022-10-16T11:41:00;4.37;;;4.00;;
787;SDS011;16074;42.708;23.312;2022-10-16T11:43:34;4.50;;;4.10;;
787;SDS011;16074;42.708;23.312;2022-10-16T11:46:09;5.00;;;4.57;;
787;SDS011;16074;42.708;23.312;2022-10-16T11:48:41;4.40;;;4.10;;
787;SDS011;16074;42.708;23.312;2022-10-16T11:51:16;8.00;;;4.43;;
787;SDS011;16074;42.708;23.312;2022-10-16T11:53:51;7.20;;;4.90;;
787;SDS011;16074;42.708;23.312;2022-10-16T11:56:24;11.70;;;4.70;;
787;SDS011;16074;42.708;23.312;2022-10-16T11:58:56;4.90;;;4.50;;
787;SDS011;16074;42.708;23.312;2022-10-16T12:01:28;4.83;;;4.43;;
787;SDS011;16074;42.708;23.312;2022-10-16T12:06:48;4.40;;;4.00;;
787;SDS011;16074;42.708;23.312;2022-10-16T12:09:21;4.30;;;3.90;;
787;SDS011;16074;42.708;23.312;2022-10-16T12:11:52;4.50;;;4.00;;
787;SDS011;16074;42.708;23.312;2022-10-16T12:14:32;4.83;;;4.43;;
787;SDS011;16074;42.708;23.312;2022-10-16T12:17:25;3.93;;;3.63;;
787;SDS011;16074;42.708;23.312;2022-10-16T12:19:57;4.83;;;4.47;;
787;SDS011;16074;42.708;23.312;2022-10-16T12:22:27;4.17;;;3.87;;
787;SDS011;16074;42.708;23.312;2022-10-16T12:24:58;3.70;;;3.40;;
787;SDS011;16074;42.708;23.312;2022-10-16T12:27:28;4.80;;;4.43;;
787;SDS011;16074;42.708;23.312;2022-10-16T12:29:59;4.80;;;4.40;;
787;SDS011;16074;42.708;23.312;2022-10-16T12:32:30;4.40;;;4.10;;
787;SDS011;16074;42.708;23.312;2022-10-16T12:35:17;3.53;;;3.33;;
787;SDS011;16074;42.708;23.312;2022-10-16T12:37:48;3.90;;;3.70;;
787;SDS011;16074;42.708;23.312;2022-10-16T12:40:23;4.33;;;4.00;;
787;SDS011;16074;42.708;23.312;2022-10-16T12:42:54;3.50;;;3.20;;
787;SDS011;16074;42.708;23.312;2022-10-16T12:45:28;3.60;;;3.40;;
787;SDS011;16074;42.708;23.312;2022-10-16T12:47:59;3.90;;;3.70;;
787;SDS011;16074;42.708;23.312;2022-10-16T12:50:33;4.70;;;4.40;;
787;SDS011;16074;42.708;23.312;2022-10-16T12:53:03;5.00;;;4.50;;
787;SDS011;16074;42.708;23.312;2022-10-16T12:55:47;6.17;;;3.87;;
787;SDS011;16074;42.708;23.312;2022-10-16T12:58:35;4.20;;;3.83;;
787;SDS011;16074;42.708;23.312;2022-10-16T13:01:19;4.27;;;4.00;;
787;SDS011;16074;42.708;23.312;2022-10-16T13:04:00;4.20;;;3.93;;
787;SDS011;16074;42.708;23.312;2022-10-16T13:06:38;6.27;;;4.60;;
787;SDS011;16074;42.708;23.312;2022-10-16T13:09:19;5.20;;;3.47;;
787;SDS011;16074;42.708;23.312;2022-10-16T13:12:05;3.57;;;3.27;;
787;SDS011;16074;42.708;23.312;2022-10-16T13:15:02;3.57;;;3.37;;
787;SDS011;16074;42.708;23.312;2022-10-16T13:17:48;4.63;;;3.90;;
787;SDS011;16074;42.708;23.312;2022-10-16T13:20:26;3.37;;;3.10;;
787;SDS011;16074;42.708;23.312;2022-10-16T13:23:04;4.50;;;3.90;;
787;SDS011;16074;42.708;23.312;2022-10-16T13:25:49;4.03;;;3.63;;
787;SDS011;16074;42.708;23.312;2022-10-16T13:28:33;4.47;;;4.17;;
787;SDS011;16074;42.708;23.312;2022-10-16T13:31:04;3.57;;;3.27;;
787;SDS011;16074;42.708;23.312;2022-10-16T13:33:35;5.30;;;3.20;;
787;SDS011;16074;42.708;23.312;2022-10-16T13:36:06;3.40;;;3.20;;
787;SDS011;16074;42.708;23.312;2022-10-16T13:38:35;5.23;;;4.73;;
787;SDS011;16074;42.708;23.312;2022-10-16T13:41:05;6.67;;;6.07;;
787;SDS011;16074;42.708;23.312;2022-10-16T13:43:43;5.77;;;5.37;;
787;SDS011;16074;42.708;23.312;2022-10-16T13:46:14;3.47;;;3.27;;
787;SDS011;16074;42.708;23.312;2022-10-16T13:48:45;3.30;;;3.10;;
787;SDS011;16074;42.708;23.312;2022-10-16T13:51:24;4.53;;;4.23;;
787;SDS011;16074;42.708;23.312;2022-10-16T13:53:54;4.10;;;3.80;;
787;SDS011;16074;42.708;23.312;2022-10-16T13:56:25;4.00;;;3.80;;
787;SDS011;16074;42.708;23.312;2022-10-16T13:58:58;3.67;;;3.47;;
787;SDS011;16074;42.708;23.312;2022-10-16T14:01:28;5.37;;;3.40;;
787;SDS011;16074;42.708;23.312;2022-10-16T14:04:04;5.17;;;4.67;;
787;SDS011;16074;42.708;23.312;2022-10-16T14:06:33;4.50;;;4.20;;
787;SDS011;16074;42.708;23.312;2022-10-16T14:09:05;3.23;;;3.03;;
787;SDS011;16074;42.708;23.312;2022-10-16T14:11:36;3.93;;;3.67;;
787;SDS011;16074;42.708;23.312;2022-10-16T14:14:12;3.40;;;3.10;;
787;SDS011;16074;42.708;23.312;2022-10-16T14:16:42;3.73;;;3.43;;
787;SDS011;16074;42.708;23.312;2022-10-16T14:19:14;4.57;;;4.17;;
787;SDS011;16074;42.708;23.312;2022-10-16T14:21:48;4.33;;;3.63;;
787;SDS011;16074;42.708;23.312;2022-10-16T14:24:27;3.40;;;3.20;;
787;SDS011;16074;42.708;23.312;2022-10-16T14:27:00;4.30;;;3.90;;
787;SDS011;16074;42.708;23.312;2022-10-16T14:29:29;4.40;;;4.10;;
787;SDS011;16074;42.708;23.312;2022-10-16T14:31:59;4.70;;;4.40;;
787;SDS011;16074;42.708;23.312;2022-10-16T14:34:31;4.10;;;3.80;;
787;SDS011;16074;42.708;23.312;2022-10-16T14:37:05;4.20;;;3.80;;
787;SDS011;16074;42.708;23.312;2022-10-16T14:39:54;8.03;;;5.47;;
787;SDS011;16074;42.708;23.312;2022-10-16T14:42:24;4.40;;;3.13;;
787;SDS011;16074;42.708;23.312;2022-10-16T14:44:53;4.10;;;3.80;;
787;SDS011;16074;42.708;23.312;2022-10-16T14:47:24;3.30;;;3.10;;
787;SDS011;16074;42.708;23.312;2022-10-16T14:49:56;3.50;;;3.30;;
787;SDS011;16074;42.708;23.312;2022-10-16T14:52:25;3.20;;;3.00;;
787;SDS011;16074;42.708;23.312;2022-10-16T14:54:54;3.83;;;3.53;;
787;SDS011;16074;42.708;23.312;2022-10-16T14:57:23;3.37;;;3.13;;
787;SDS011;16074;42.708;23.312;2022-10-16T14:59:55;3.90;;;3.50;;
787;SDS011;16074;42.708;23.312;2022-10-16T15:02:26;3.50;;;3.40;;
787;SDS011;16074;42.708;23.312;2022-10-16T15:04:57;4.77;;;4.30;;
787;SDS011;16074;42.708;23.312;2022-10-16T15:07:29;3.90;;;3.60;;
787;SDS011;16074;42.708;23.312;2022-10-16T15:09:58;6.53;;;6.00;;
787;SDS011;16074;42.708;23.312;2022-10-16T15:12:26;5.37;;;4.87;;
787;SDS011;16074;42.708;23.312;2022-10-16T15:14:54;5.20;;;4.80;;
787;SDS011;16074;42.708;23.312;2022-10-16T15:17:22;5.43;;;5.03;;
787;SDS011;16074;42.708;23.312;2022-10-16T15:19:51;5.57;;;4.90;;
787;SDS011;16074;42.708;23.312;2022-10-16T15:22:20;4.93;;;4.63;;
787;SDS011;16074;42.708;23.312;2022-10-16T15:24:50;5.77;;;4.40;;
787;SDS011;16074;42.708;23.312;2022-10-16T15:27:18;5.03;;;4.63;;
787;SDS011;16074;42.708;23.312;2022-10-16T15:29:46;4.80;;;4.40;;